Terminal Aerodrome Forecast
Issued by NWS

Home | Current Version | Previous Version | Text Only | Print | Product List | Glossary On
Versions: 1 2 3 4 5 6 7 8 9 10 11 12 13 14 15 16 17 18
000
FTUS46 KSEW 021100
TAFBLI
TAF
KBLI 021132Z 0212/0312 00000KT P6SM SCT070
      TEMPO 0213/0217 2SM BCFG BKN002 BKN070
     FM021700 VRB04KT P6SM SCT070 SCT150
     FM031000 00000KT 4SM BR SCT005 SCT060=

USA.gov is the U.S. government's official web portal to all federal, state and local government web resources and services.